Terminal Aerodrome Forecast
Issued by NWS

Home | Current Version | Previous Version | Graphics & Text | Print | Product List | Glossary On
Versions: 1 2 3 4 5 6 7 8 9 10 11 12 13 14 15
000
FTUS43 KMPX 231722
TAFRNH
TAF
KRNH 231722Z 2318/2418 31009G16KT P6SM SKC
     FM240000 VRB03KT P6SM FEW200
     FM240800 12005KT P6SM BKN080 OVC120
     FM241400 13010G17KT 4SM -RA OVC050=

USA.gov is the U.S. government's official web portal to all federal, state and local government web resources and services.